PWSweather.com
Personal Weather Stations
Station Observations
VPOKROGLO
Kal Nad Kanalom, PrimorskaSI

Kal Nad KanalomPrimorskaSI

Lat: 46.072, Lon: 13.734

Elevation: 2526

Station Type: WS-2355

http://www.okroglovreme.com

High Low Average
Temperature 39.4°F4.1°F 33.4°F0.8°F 37.1°F2.8°F
Dew Point 36.4°F2.4°F 27.9°F-2.3°F 33.0°F0.6°F
Winds 9.3 mph SSW15.0 mph SSW 0.3 mph 0.5 mph 3.0 mph 4.8 mph
Wind Gusts 20.4 mph32.8 mph 2.0 mph3.2 mph 8.2 mph13.2 mph
Humidity 89% 80% 85%
Pressure 29.95 in1014.20 in 29.81 in1009.50 in -
Precipitation 0.32 in8.10 in - -
Hour Temp Dew Point Humidity Winds Wind Gusts Pressure Precip Precip Rate Daily Precip Total
12:00 AM 36.9°F2.7°C 32.2°F0.1°C 83% 2.7 mph SW4.3 kmh SW 4.5 mph7.2 kmh 29.89 in1012.2 mb 0.00 in0.0 mm 0.00 in0.0 mm 0.00 in0.0 mm
12:15 AM 36.7°F2.6°C 32.0°F0.0°C 83% 1.4 mph SW2.3 kmh SW 4.0 mph6.4 kmh 29.88 in1011.9 mb 0.00 in0.0 mm 0.00 in0.0 mm 0.00 in0.0 mm
12:30 AM 36.7°F2.6°C 32.3°F0.2°C 84% 4.7 mph SW7.6 kmh SW 11.0 mph17.7 kmh 29.87 in1011.5 mb 0.00 in0.0 mm 0.00 in0.0 mm 0.00 in0.0 mm
12:45 AM 37.2°F2.9°C 32.8°F0.4°C 84% 4.6 mph SW7.4 kmh SW 9.4 mph15.1 kmh 29.86 in1011.2 mb 0.00 in0.0 mm 0.00 in0.0 mm 0.00 in0.0 mm
01:00 AM 37.2°F2.9°C 32.8°F0.4°C 84% 4.6 mph SW7.4 kmh SW 9.2 mph14.8 kmh 29.86 in1011.2 mb 0.00 in0.0 mm 0.00 in0.0 mm 0.00 in0.0 mm
01:15 AM 37.2°F2.9°C 32.8°F0.4°C 84% 3.8 mph SW6.1 kmh SW 7.4 mph11.9 kmh 29.86 in1011.2 mb 0.00 in0.0 mm 0.00 in0.0 mm 0.00 in0.0 mm
01:30 AM 37.0°F2.8°C 32.7°F0.4°C 84% 1.6 mph W2.6 kmh W 7.8 mph12.6 kmh 29.86 in1011.2 mb 0.00 in0.0 mm 0.00 in0.0 mm 0.00 in0.0 mm
01:45 AM 37.0°F2.8°C 32.7°F0.4°C 84% 5.5 mph SW8.9 kmh SW 9.8 mph15.8 kmh 29.84 in1010.5 mb 0.00 in0.0 mm 0.00 in0.0 mm 0.00 in0.0 mm
02:00 AM 37.6°F3.1°C 33.2°F0.7°C 84% 8.2 mph SSW13.2 kmh SSW 13.6 mph21.9 kmh 29.84 in1010.5 mb 0.00 in0.0 mm 0.00 in0.0 mm 0.00 in0.0 mm
02:15 AM 37.4°F3.0°C 33.0°F0.6°C 84% 2.3 mph SW3.7 kmh SW 7.8 mph12.6 kmh 29.84 in1010.5 mb 0.00 in0.0 mm 0.00 in0.0 mm 0.00 in0.0 mm
02:30 AM 37.0°F2.8°C 32.7°F0.4°C 84% 1.6 mph SW2.6 kmh SW 4.9 mph7.9 kmh 29.84 in1010.5 mb 0.00 in0.0 mm 0.00 in0.0 mm 0.00 in0.0 mm
02:45 AM 37.2°F2.9°C 32.8°F0.4°C 84% 3.4 mph WSW5.5 kmh WSW 9.8 mph15.8 kmh 29.84 in1010.5 mb 0.00 in0.0 mm 0.00 in0.0 mm 0.00 in0.0 mm
03:00 AM 37.0°F2.8°C 32.9°F0.5°C 85% 5.5 mph SSW8.9 kmh SSW 15.9 mph25.6 kmh 29.83 in1010.2 mb 0.00 in0.0 mm 0.00 in0.0 mm 0.00 in0.0 mm
03:15 AM 37.6°F3.1°C 33.5°F0.8°C 85% 6.1 mph SW9.8 kmh SW 12.1 mph19.5 kmh 29.84 in1010.5 mb 0.00 in0.0 mm 0.00 in0.0 mm 0.00 in0.0 mm
03:30 AM 37.2°F2.9°C 33.1°F0.6°C 85% 4.9 mph WSW7.9 kmh WSW 13.0 mph20.9 kmh 29.84 in1010.5 mb 0.00 in0.0 mm 0.00 in0.0 mm 0.00 in0.0 mm
03:45 AM 36.7°F2.6°C 32.6°F0.3°C 85% 1.9 mph WSW3.1 kmh WSW 6.0 mph9.7 kmh 29.83 in1010.2 mb 0.00 in0.0 mm 0.00 in0.0 mm 0.00 in0.0 mm
04:00 AM 36.7°F2.6°C 32.6°F0.3°C 85% 3.1 mph SW5.0 kmh SW 10.5 mph16.9 kmh 29.83 in1010.2 mb 0.00 in0.0 mm 0.00 in0.0 mm 0.00 in0.0 mm
04:15 AM 36.7°F2.6°C 32.6°F0.3°C 85% 1.6 mph SW2.6 kmh SW 7.8 mph12.6 kmh 29.83 in1010.2 mb 0.00 in0.0 mm 0.00 in0.0 mm 0.00 in0.0 mm
04:30 AM 37.2°F2.9°C 33.1°F0.6°C 85% 9.3 mph SSW15.0 kmh SSW 17.2 mph27.7 kmh 29.83 in1010.2 mb 0.00 in0.0 mm 0.00 in0.0 mm 0.00 in0.0 mm
04:45 AM 37.6°F3.1°C 33.5°F0.8°C 85% 5.6 mph S9.0 kmh S 13.6 mph21.9 kmh 29.83 in1010.2 mb 0.00 in0.0 mm 0.00 in0.0 mm 0.00 in0.0 mm
05:00 AM 37.2°F2.9°C 33.1°F0.6°C 85% 1.6 mph SW2.6 kmh SW 4.9 mph7.9 kmh 29.83 in1010.2 mb 0.00 in0.0 mm 0.00 in0.0 mm 0.00 in0.0 mm
05:15 AM 36.9°F2.7°C 32.8°F0.4°C 85% 1.4 mph SW2.3 kmh SW 6.9 mph11.1 kmh 29.83 in1010.2 mb 0.00 in0.0 mm 0.00 in0.0 mm 0.00 in0.0 mm
05:30 AM 37.2°F2.9°C 33.4°F0.8°C 86% 2.4 mph SW3.9 kmh SW 11.9 mph19.2 kmh 29.82 in1009.8 mb 0.00 in0.0 mm 0.00 in0.0 mm 0.00 in0.0 mm
05:45 AM 36.9°F2.7°C 33.1°F0.6°C 86% 0.7 mph W1.1 kmh W 2.5 mph4.0 kmh 29.82 in1009.8 mb 0.00 in0.0 mm 0.00 in0.0 mm 0.00 in0.0 mm
06:00 AM 37.0°F2.8°C 33.2°F0.7°C 86% 0.7 mph W1.1 kmh W 4.3 mph6.9 kmh 29.82 in1009.8 mb 0.00 in0.0 mm 0.00 in0.0 mm 0.00 in0.0 mm
06:15 AM 36.9°F2.7°C 33.1°F0.6°C 86% 1.7 mph NNW2.7 kmh NNW 5.8 mph9.3 kmh 29.82 in1009.8 mb 0.00 in0.0 mm 0.00 in0.0 mm 0.00 in0.0 mm
06:30 AM 36.7°F2.6°C 32.9°F0.5°C 86% 0.8 mph N1.3 kmh N 3.4 mph5.5 kmh 29.82 in1009.8 mb 0.00 in0.0 mm 0.00 in0.0 mm 0.00 in0.0 mm
06:45 AM 36.5°F2.5°C 32.4°F0.2°C 85% 0.6 mph NNE1.0 kmh NNE 3.8 mph6.1 kmh 29.81 in1009.5 mb 0.00 in0.0 mm 0.00 in0.0 mm 0.00 in0.0 mm
07:00 AM 37.0°F2.8°C 33.2°F0.7°C 86% 0.8 mph NE1.3 kmh NE 3.6 mph5.8 kmh 29.81 in1009.5 mb 0.00 in0.0 mm 0.00 in0.0 mm 0.00 in0.0 mm
07:15 AM 36.9°F2.7°C 33.1°F0.6°C 86% 1.2 mph N1.9 kmh N 5.1 mph8.2 kmh 29.82 in1009.8 mb 0.00 in0.0 mm 0.00 in0.0 mm 0.00 in0.0 mm
07:30 AM 36.9°F2.7°C 33.1°F0.6°C 86% 0.4 mph N0.6 kmh N 2.0 mph3.2 kmh 29.81 in1009.5 mb 0.00 in0.0 mm 0.00 in0.0 mm 0.00 in0.0 mm
07:45 AM 36.9°F2.7°C 33.1°F0.6°C 86% 0.4 mph N0.6 kmh N 2.2 mph3.5 kmh 29.82 in1009.8 mb 0.00 in0.0 mm 0.00 in0.0 mm 0.00 in0.0 mm
08:00 AM 37.0°F2.8°C 33.2°F0.7°C 86% 1.2 mph N1.9 kmh N 3.6 mph5.8 kmh 29.82 in1009.8 mb 0.00 in0.0 mm 0.00 in0.0 mm 0.00 in0.0 mm
08:15 AM 36.9°F2.7°C 33.1°F0.6°C 86% 0.8 mph NE1.3 kmh NE 2.5 mph4.0 kmh 29.83 in1010.2 mb 0.02 in0.5 mm 0.08 in2.0 mm 0.02 in0.5 mm
08:30 AM 37.0°F2.8°C 33.2°F0.7°C 86% 1.3 mph NE2.1 kmh NE 4.7 mph7.6 kmh 29.82 in1009.8 mb 0.02 in0.5 mm 0.00 in0.0 mm 0.02 in0.5 mm
08:45 AM 37.2°F2.9°C 33.7°F0.9°C 87% 1.4 mph ENE2.3 kmh ENE 3.8 mph6.1 kmh 29.82 in1009.8 mb 0.02 in0.5 mm 0.00 in0.0 mm 0.02 in0.5 mm
09:00 AM 37.6°F3.1°C 34.1°F1.2°C 87% 2.0 mph NNE3.2 kmh NNE 5.6 mph9.0 kmh 29.81 in1009.5 mb 0.02 in0.5 mm 0.00 in0.0 mm 0.02 in0.5 mm
09:15 AM 37.6°F3.1°C 34.1°F1.2°C 87% 0.7 mph NE1.1 kmh NE 3.4 mph5.5 kmh 29.82 in1009.8 mb 0.00 in0.0 mm 0.00 in0.0 mm 0.02 in0.5 mm
09:30 AM 37.8°F3.2°C 34.2°F1.2°C 87% 1.1 mph E1.8 kmh E 4.3 mph6.9 kmh 29.82 in1009.8 mb 0.00 in0.0 mm 0.00 in0.0 mm 0.02 in0.5 mm
09:45 AM 38.1°F3.4°C 34.6°F1.4°C 87% 0.9 mph NW1.4 kmh NW 3.6 mph5.8 kmh 29.82 in1009.8 mb 0.00 in0.0 mm 0.00 in0.0 mm 0.02 in0.5 mm
10:00 AM 38.5°F3.6°C 34.9°F1.6°C 87% 2.8 mph S4.5 kmh S 10.5 mph16.9 kmh 29.82 in1009.8 mb 0.00 in0.0 mm 0.00 in0.0 mm 0.02 in0.5 mm
10:15 AM 38.8°F3.8°C 35.3°F1.8°C 87% 3.1 mph SW5.0 kmh SW 7.2 mph11.6 kmh 29.82 in1009.8 mb 0.00 in0.0 mm 0.00 in0.0 mm 0.02 in0.5 mm
10:30 AM 38.8°F3.8°C 35.6°F2.0°C 88% 1.7 mph SW2.7 kmh SW 4.5 mph7.2 kmh 29.83 in1010.2 mb 0.00 in0.0 mm 0.00 in0.0 mm 0.02 in0.5 mm
10:45 AM 38.8°F3.8°C 35.6°F2.0°C 88% 2.7 mph SW4.3 kmh SW 11.9 mph19.2 kmh 29.84 in1010.5 mb 0.00 in0.0 mm 0.00 in0.0 mm 0.02 in0.5 mm
11:00 AM 39.4°F4.1°C 36.1°F2.3°C 88% 5.6 mph SSW9.0 kmh SSW 10.5 mph16.9 kmh 29.84 in1010.5 mb 0.00 in0.0 mm 0.00 in0.0 mm 0.02 in0.5 mm
11:15 AM 39.4°F4.1°C 36.1°F2.3°C 88% 2.8 mph SW4.5 kmh SW 10.3 mph16.6 kmh 29.84 in1010.5 mb 0.00 in0.0 mm 0.00 in0.0 mm 0.02 in0.5 mm
11:30 AM 39.0°F3.9°C 35.8°F2.1°C 88% 1.4 mph SSW2.3 kmh SSW 8.1 mph13.0 kmh 29.84 in1010.5 mb 0.00 in0.0 mm 0.00 in0.0 mm 0.02 in0.5 mm
11:45 AM 39.0°F3.9°C 35.8°F2.1°C 88% 1.7 mph W2.7 kmh W 7.2 mph11.6 kmh 29.84 in1010.5 mb 0.00 in0.0 mm 0.00 in0.0 mm 0.02 in0.5 mm
12:00 PM 39.0°F3.9°C 35.8°F2.1°C 88% 2.5 mph W4.0 kmh W 8.1 mph13.0 kmh 29.83 in1010.2 mb 0.02 in0.5 mm 0.03 in0.8 mm 0.04 in1.0 mm
12:15 PM 39.2°F4.0°C 35.9°F2.2°C 88% 2.9 mph SW4.7 kmh SW 6.0 mph9.7 kmh 29.83 in1010.2 mb 0.02 in0.5 mm 0.00 in0.0 mm 0.04 in1.0 mm
12:30 PM 39.4°F4.1°C 36.4°F2.4°C 89% 3.9 mph SW6.3 kmh SW 6.7 mph10.8 kmh 29.83 in1010.2 mb 0.02 in0.5 mm 0.00 in0.0 mm 0.04 in1.0 mm
12:45 PM 39.0°F3.9°C 36.1°F2.3°C 89% 0.8 mph SW1.3 kmh SW 3.6 mph5.8 kmh 29.83 in1010.2 mb 0.02 in0.5 mm 0.00 in0.0 mm 0.04 in1.0 mm
01:00 PM 38.8°F3.8°C 35.9°F2.2°C 89% 0.6 mph SW1.0 kmh SW 3.8 mph6.1 kmh 29.83 in1010.2 mb 0.00 in0.0 mm 0.00 in0.0 mm 0.04 in1.0 mm
01:15 PM 38.8°F3.8°C 35.9°F2.2°C 89% 0.5 mph N0.8 kmh N 2.9 mph4.7 kmh 29.83 in1010.2 mb 0.00 in0.0 mm 0.00 in0.0 mm 0.04 in1.0 mm
01:30 PM 38.5°F3.6°C 35.5°F1.9°C 89% 1.4 mph N2.3 kmh N 3.6 mph5.8 kmh 29.83 in1010.2 mb 0.02 in0.5 mm 0.08 in2.0 mm 0.06 in1.5 mm
01:45 PM 38.5°F3.6°C 35.5°F1.9°C 89% 1.5 mph N2.4 kmh N 3.6 mph5.8 kmh 29.83 in1010.2 mb 0.02 in0.5 mm 0.00 in0.0 mm 0.06 in1.5 mm
02:00 PM 38.5°F3.6°C 35.5°F1.9°C 89% 1.3 mph NNE2.1 kmh NNE 3.1 mph5.0 kmh 29.83 in1010.2 mb 0.02 in0.5 mm 0.00 in0.0 mm 0.06 in1.5 mm
02:15 PM 38.8°F3.8°C 35.6°F2.0°C 88% 0.6 mph NE1.0 kmh NE 2.5 mph4.0 kmh 29.84 in1010.5 mb 0.02 in0.5 mm 0.00 in0.0 mm 0.06 in1.5 mm
02:30 PM 38.8°F3.8°C 35.6°F2.0°C 88% 0.3 mph NE0.5 kmh NE 2.2 mph3.5 kmh 29.83 in1010.2 mb 0.00 in0.0 mm 0.00 in0.0 mm 0.06 in1.5 mm
02:45 PM 38.8°F3.8°C 35.6°F2.0°C 88% 1.2 mph NE1.9 kmh NE 2.9 mph4.7 kmh 29.84 in1010.5 mb 0.00 in0.0 mm 0.00 in0.0 mm 0.06 in1.5 mm
03:00 PM 38.8°F3.8°C 35.6°F2.0°C 88% 0.6 mph NE1.0 kmh NE 3.6 mph5.8 kmh 29.84 in1010.5 mb 0.00 in0.0 mm 0.00 in0.0 mm 0.06 in1.5 mm
03:15 PM 38.8°F3.8°C 35.6°F2.0°C 88% 3.1 mph N5.0 kmh N 5.8 mph9.3 kmh 29.85 in1010.8 mb 0.00 in0.0 mm 0.00 in0.0 mm 0.06 in1.5 mm
03:30 PM 38.5°F3.6°C 35.2°F1.8°C 88% 3.3 mph N5.3 kmh N 6.7 mph10.8 kmh 29.85 in1010.8 mb 0.00 in0.0 mm 0.00 in0.0 mm 0.06 in1.5 mm
03:45 PM 38.3°F3.5°C 34.8°F1.6°C 87% 1.3 mph NE2.1 kmh NE 4.0 mph6.4 kmh 29.86 in1011.2 mb 0.02 in0.5 mm 0.08 in2.0 mm 0.08 in2.0 mm
04:00 PM 37.8°F3.2°C 34.2°F1.2°C 87% 1.0 mph E1.6 kmh E 2.7 mph4.3 kmh 29.86 in1011.2 mb 0.02 in0.5 mm 0.00 in0.0 mm 0.08 in2.0 mm
04:15 PM 37.6°F3.1°C 34.1°F1.2°C 87% 2.1 mph E3.4 kmh E 4.7 mph7.6 kmh 29.85 in1010.8 mb 0.02 in0.5 mm 0.00 in0.0 mm 0.08 in2.0 mm
04:30 PM 38.1°F3.4°C 34.3°F1.3°C 86% 1.8 mph ENE2.9 kmh ENE 4.3 mph6.9 kmh 29.85 in1010.8 mb 0.02 in0.5 mm 0.00 in0.0 mm 0.08 in2.0 mm
04:45 PM 38.5°F3.6°C 34.1°F1.2°C 84% 0.7 mph E1.1 kmh E 2.2 mph3.5 kmh 29.85 in1010.8 mb 0.00 in0.0 mm 0.00 in0.0 mm 0.08 in2.0 mm
05:00 PM 38.3°F3.5°C 33.6°F0.9°C 83% 1.3 mph E2.1 kmh E 2.9 mph4.7 kmh 29.85 in1010.8 mb 0.00 in0.0 mm 0.00 in0.0 mm 0.08 in2.0 mm
05:15 PM 37.6°F3.1°C 32.9°F0.5°C 83% 2.6 mph NE4.2 kmh NE 4.5 mph7.2 kmh 29.85 in1010.8 mb 0.00 in0.0 mm 0.00 in0.0 mm 0.08 in2.0 mm
05:30 PM 37.8°F3.2°C 33.1°F0.6°C 83% 3.0 mph NNE4.8 kmh NNE 7.4 mph11.9 kmh 29.86 in1011.2 mb 0.00 in0.0 mm 0.00 in0.0 mm 0.08 in2.0 mm
05:45 PM 37.2°F2.9°C 32.8°F0.4°C 84% 4.4 mph N7.1 kmh N 8.3 mph13.4 kmh 29.86 in1011.2 mb 0.00 in0.0 mm 0.00 in0.0 mm 0.08 in2.0 mm
06:00 PM 37.2°F2.9°C 32.8°F0.4°C 84% 2.5 mph N4.0 kmh N 8.1 mph13.0 kmh 29.86 in1011.2 mb 0.00 in0.0 mm 0.00 in0.0 mm 0.08 in2.0 mm
06:15 PM 37.2°F2.9°C 32.5°F0.3°C 83% 2.8 mph N4.5 kmh N 8.3 mph13.4 kmh 29.87 in1011.5 mb 0.00 in0.0 mm 0.00 in0.0 mm 0.08 in2.0 mm
06:30 PM 37.0°F2.8°C 32.7°F0.4°C 84% 2.3 mph WSW3.7 kmh WSW 8.1 mph13.0 kmh 29.88 in1011.9 mb 0.00 in0.0 mm 0.00 in0.0 mm 0.08 in2.0 mm
06:45 PM 36.9°F2.7°C 32.5°F0.3°C 84% 2.7 mph NNW4.3 kmh NNW 12.3 mph19.8 kmh 29.88 in1011.9 mb 0.00 in0.0 mm 0.00 in0.0 mm 0.08 in2.0 mm
07:00 PM 36.7°F2.6°C 32.3°F0.2°C 84% 2.6 mph NW4.2 kmh NW 8.5 mph13.7 kmh 29.89 in1012.2 mb 0.00 in0.0 mm 0.00 in0.0 mm 0.08 in2.0 mm
07:15 PM 36.9°F2.7°C 31.9°F-0.1°C 82% 3.0 mph WNW4.8 kmh WNW 7.6 mph12.2 kmh 29.90 in1012.5 mb 0.00 in0.0 mm 0.00 in0.0 mm 0.08 in2.0 mm
07:30 PM 36.7°F2.6°C 31.4°F-0.3°C 81% 2.9 mph N4.7 kmh N 9.8 mph15.8 kmh 29.89 in1012.2 mb 0.00 in0.0 mm 0.00 in0.0 mm 0.08 in2.0 mm
07:45 PM 36.1°F2.3°C 30.9°F-0.6°C 81% 3.6 mph N5.8 kmh N 13.6 mph21.9 kmh 29.89 in1012.2 mb 0.00 in0.0 mm 0.00 in0.0 mm 0.08 in2.0 mm
08:00 PM 35.4°F1.9°C 30.5°F-0.8°C 82% 3.7 mph NNW6.0 kmh NNW 11.2 mph18.0 kmh 29.89 in1012.2 mb 0.00 in0.0 mm 0.00 in0.0 mm 0.08 in2.0 mm
08:15 PM 35.2°F1.8°C 30.3°F-0.9°C 82% 4.7 mph N7.6 kmh N 14.1 mph22.7 kmh 29.89 in1012.2 mb 0.00 in0.0 mm 0.00 in0.0 mm 0.08 in2.0 mm
08:30 PM 34.9°F1.6°C 30.2°F-1.0°C 83% 5.2 mph N8.4 kmh N 13.9 mph22.4 kmh 29.90 in1012.5 mb 0.00 in0.0 mm 0.00 in0.0 mm 0.08 in2.0 mm
08:45 PM 34.9°F1.6°C 29.9°F-1.2°C 82% 6.1 mph SE9.8 kmh SE 17.9 mph28.8 kmh 29.90 in1012.5 mb 0.00 in0.0 mm 0.00 in0.0 mm 0.08 in2.0 mm
09:00 PM 34.9°F1.6°C 29.9°F-1.2°C 82% 5.3 mph ESE8.5 kmh ESE 15.7 mph25.3 kmh 29.91 in1012.9 mb 0.00 in0.0 mm 0.00 in0.0 mm 0.08 in2.0 mm
09:15 PM 34.7°F1.5°C 29.5°F-1.4°C 81% 5.8 mph E9.3 kmh E 16.3 mph26.2 kmh 29.91 in1012.9 mb 0.00 in0.0 mm 0.00 in0.0 mm 0.08 in2.0 mm
09:30 PM 34.7°F1.5°C 29.5°F-1.4°C 81% 6.9 mph SE11.1 kmh SE 14.3 mph23.0 kmh 29.92 in1013.2 mb 0.00 in0.0 mm 0.00 in0.0 mm 0.08 in2.0 mm
09:45 PM 34.5°F1.4°C 29.3°F-1.5°C 81% 6.0 mph SE9.7 kmh SE 16.6 mph26.7 kmh 29.92 in1013.2 mb 0.00 in0.0 mm 0.00 in0.0 mm 0.08 in2.0 mm
10:00 PM 34.3°F1.3°C 29.1°F-1.6°C 81% 7.2 mph SE11.6 kmh SE 15.7 mph25.3 kmh 29.93 in1013.5 mb 0.00 in0.0 mm 0.00 in0.0 mm 0.08 in2.0 mm
10:15 PM 34.3°F1.3°C 29.1°F-1.6°C 81% 6.8 mph SE10.9 kmh SE 19.5 mph31.4 kmh 29.93 in1013.5 mb 0.00 in0.0 mm 0.00 in0.0 mm 0.08 in2.0 mm
10:30 PM 34.2°F1.2°C 28.9°F-1.7°C 81% 8.0 mph SE12.9 kmh SE 15.0 mph24.1 kmh 29.94 in1013.9 mb 0.00 in0.0 mm 0.00 in0.0 mm 0.08 in2.0 mm
10:45 PM 33.8°F1.0°C 28.6°F-1.9°C 81% 6.4 mph SE10.3 kmh SE 15.0 mph24.1 kmh 29.94 in1013.9 mb 0.00 in0.0 mm 0.00 in0.0 mm 0.08 in2.0 mm
11:00 PM 33.6°F0.9°C 28.4°F-2.0°C 81% 7.2 mph ESE11.6 kmh ESE 17.4 mph28.0 kmh 29.95 in1014.2 mb 0.00 in0.0 mm 0.00 in0.0 mm 0.08 in2.0 mm
11:15 PM 33.6°F0.9°C 28.4°F-2.0°C 81% 5.5 mph ENE8.9 kmh ENE 17.2 mph27.7 kmh 29.95 in1014.2 mb 0.00 in0.0 mm 0.00 in0.0 mm 0.08 in2.0 mm
11:30 PM 33.6°F0.9°C 28.4°F-2.0°C 81% 5.7 mph ESE9.2 kmh ESE 13.4 mph21.6 kmh 29.94 in1013.9 mb 0.00 in0.0 mm 0.00 in0.0 mm 0.08 in2.0 mm
11:45 PM 33.4°F0.8°C 27.9°F-2.3°C 80% 7.6 mph ENE12.2 kmh ENE 20.4 mph32.8 kmh 29.94 in1013.9 mb 0.00 in0.0 mm 0.00 in0.0 mm 0.08 in2.0 mm